Strona główna
METAR-TAF:

METAR-TAF

Lotnisko :

Port lotniczy Mae Sot

Mae Sot, Tajlandia

Szerokość geograficzna: 16-40N, Długość geograficzna: 098-33E, wysokość: 196 m

Aktualna obserwacja pogody

Raport powstał 33 minut temu, godzina 09:00 UTC
Wiatr 13 kt od południowy zachód
Temperatura 33°C
Wilgotność 53%
Ciśnienie 1005 hPa
Widzialność 10 km lub więcej
Mało chmury na wysokości 3500 ft

METAR: VTPM 040900Z 22013KT 9999 FEW035 33/22 Q1005 NOSIG

czas: 16:33 (09:33 UTC)

Prognoza

Raport powstał 4 godziny i 33 minut temu, godzina 05:00 UTC
Prognoza ważna od 04 godzina 06 UTC do 05 godzina 06 UTC
Wiatr 5 kt od zachodnio-południowy zachód
Widzialność 10 km lub więcej
Rozproszone chmury na wysokości 3000 ft
Przejściowo
od 04 godzina 08 UTC do 04 godzina 14 UTC
Wiatr 15 kt od zachód w porywach dochodzący do 25 kt
Widzialność: 4000 m
Mało chmury na wysokości 2000 ft, Cumulonimbus.
Przerywane chmury na wysokości 2500 ft
burza, deszcz

TAF: VTPM 040500Z 0406/0506 25005KT 9999 SCT030 TEMPO 0408/0414 26015G25KT 4000 TSRA FEW020CB BKN025

Obserwacja i prognoza pogody dla ponad 4000 lotnisk (raport METAR i TAF).

Dostępne stacje oznaczono żółtymi i czerwonymi punktami na mapie.

Najedź kursorem aby zobaczyć nazwę stacji.

Kliknij aby zobaczyć obserwacje i prognozy pogody.

Aby zmienić mapę: kliknij na zielony przycisk z czarnym krzyżykiem, aby powiększyć; na zielony przycisk z myślnikiem, aby pomniejszyć; na zielone strzałki, aby przejść do map sąsiednich.


METAR-TAF: